Station Historical Data
Daily Summary for May 28, 2017 Units:  English    Metric   Both
« Previous Day
Next Day »
Daily Weekly Monthly Yearly Custom
  High: Low: Average:
Temperature: 79.9 °F 50.4 °F 65.7 °F
Dew Point: 64.3 °F 48.5 °F 57.2 °F
Humidity: 94% 52% 76%
Wind Speed: 8.0mph 0.0mph 2mph
Wind Gust: 13.0mph - -
Wind- - ESE
Pressure: 29.94 in 29.68 in -
Precipitation: 0.00 in    
Historical Graphs
 
 
Tabular Data for May 28, 2017
Time Temperature Dew Point Pressure Wind Wind Speed Wind Gust Humidity Rainfall Rate (Hourly)
00:04 54.5 °F 51.3 °F 29.94 in Calm     89% 0.00 in
00:09 54.6 °F 51.4 °F 29.91 in Calm     89% 0.00 in
00:14 54.9 °F 52.0 °F 29.90 in Calm     90% 0.00 in
00:19 54.9 °F 52.0 °F 29.91 in Calm     90% 0.00 in
00:24 54.6 °F 51.7 °F 29.90 in Calm     90% 0.00 in
00:29 54.4 °F 51.5 °F 29.90 in Calm     90% 0.00 in
00:34 54.1 °F 51.2 °F 29.90 in Calm     90% 0.00 in
00:39 53.8 °F 50.9 °F 29.90 in Calm     90% 0.00 in
00:44 53.5 °F 50.6 °F 29.89 in Calm     90% 0.00 in
00:49 53.4 °F 50.5 °F 29.89 in Calm     90% 0.00 in
00:54 53.3 °F 50.4 °F 29.90 in Calm     90% 0.00 in
00:59 53.2 °F 50.6 °F 29.90 in Calm     91% 0.00 in
01:04 53.0 °F 50.4 °F 29.89 in Calm     91% 0.00 in
01:09 53.0 °F 50.4 °F 29.88 in Calm     91% 0.00 in
01:14 53.5 °F 50.9 °F 29.89 in Calm     91% 0.00 in
01:19 53.4 °F 50.8 °F 29.88 in Calm     91% 0.00 in
01:24 53.5 °F 51.2 °F 29.87 in Calm     92% 0.00 in
01:29 53.6 °F 51.3 °F 29.86 in Calm     92% 0.00 in
01:34 53.4 °F 51.1 °F 29.86 in Calm     92% 0.00 in
01:39 53.2 °F 50.9 °F 29.86 in Calm     92% 0.00 in
01:44 53.0 °F 50.7 °F 29.86 in Calm     92% 0.00 in
01:49 52.6 °F 50.3 °F 29.88 in Calm     92% 0.00 in
01:54 52.5 °F 50.2 °F 29.89 in Calm     92% 0.00 in
01:59 52.6 °F 50.3 °F 29.90 in Calm     92% 0.00 in
02:04 52.4 °F 50.1 °F 29.89 in Calm     92% 0.00 in
02:09 52.1 °F 49.8 °F 29.89 in Calm     92% 0.00 in
02:14 52.4 °F 50.1 °F 29.89 in Calm     92% 0.00 in
02:19 52.2 °F 49.9 °F 29.89 in Calm     92% 0.00 in
02:24 52.4 °F 50.4 °F 29.89 in Calm     93% 0.00 in
02:29 52.3 °F 50.3 °F 29.88 in Calm     93% 0.00 in
02:34 52.2 °F 50.2 °F 29.88 in Calm     93% 0.00 in
02:39 52.0 °F 49.7 °F 29.88 in Calm     92% 0.00 in
02:44 51.8 °F 49.8 °F 29.88 in Calm     93% 0.00 in
02:49 51.7 °F 49.7 °F 29.89 in Calm     93% 0.00 in
02:54 51.8 °F 49.8 °F 29.89 in Calm     93% 0.00 in
02:59 51.5 °F 49.5 °F 29.88 in Calm     93% 0.00 in
03:04 51.4 °F 49.4 °F 29.88 in Calm     93% 0.00 in
03:09 51.6 °F 49.6 °F 29.88 in Calm     93% 0.00 in
03:14 51.6 °F 49.6 °F 29.87 in Calm     93% 0.00 in
03:19 51.7 °F 49.7 °F 29.87 in Calm     93% 0.00 in
03:24 51.8 °F 49.8 °F 29.87 in Calm     93% 0.00 in
03:29 51.4 °F 49.4 °F 29.88 in Calm     93% 0.00 in
03:34 51.3 °F 49.3 °F 29.87 in Calm     93% 0.00 in
03:39 51.5 °F 49.5 °F 29.87 in Calm     93% 0.00 in
03:44 51.5 °F 49.5 °F 29.86 in Calm     93% 0.00 in
03:49 51.7 °F 49.7 °F 29.86 in Calm     93% 0.00 in
03:54 51.8 °F 50.1 °F 29.87 in Calm     94% 0.00 in
03:59 51.7 °F 49.7 °F 29.87 in Calm     93% 0.00 in
04:04 51.6 °F 49.6 °F 29.87 in Calm     93% 0.00 in
04:09 51.6 °F 49.6 °F 29.87 in Calm     93% 0.00 in
04:14 51.7 °F 49.7 °F 29.88 in Calm     93% 0.00 in
04:19 51.5 °F 49.5 °F 29.88 in Calm     93% 0.00 in
04:24 51.3 °F 49.3 °F 29.88 in Calm     93% 0.00 in
04:29 51.2 °F 49.2 °F 29.88 in Calm     93% 0.00 in
04:34 51.0 °F 49.0 °F 29.88 in Calm     93% 0.00 in
04:39 50.9 °F 48.9 °F 29.87 in Calm     93% 0.00 in
04:44 50.7 °F 48.7 °F 29.87 in Calm     93% 0.00 in
04:49 50.8 °F 49.1 °F 29.87 in Calm     94% 0.00 in
04:54 50.6 °F 48.7 °F 29.88 in Calm     93% 0.00 in
04:59 50.6 °F 48.9 °F 29.88 in Calm     94% 0.00 in
05:04 50.7 °F 49.0 °F 29.88 in Calm     94% 0.00 in
05:09 50.6 °F 48.7 °F 29.87 in Calm     93% 0.00 in
05:14 50.5 °F 48.6 °F 29.88 in Calm     93% 0.00 in
05:19 50.5 °F 48.6 °F 29.87 in Calm     93% 0.00 in
05:24 50.4 °F 48.5 °F 29.87 in Calm     93% 0.00 in
05:29 50.5 °F 48.8 °F 29.88 in Calm     94% 0.00 in
05:34 50.5 °F 48.8 °F 29.88 in Calm     94% 0.00 in
05:39 50.6 °F 48.9 °F 29.88 in Calm     94% 0.00 in
05:44 50.7 °F 49.0 °F 29.87 in Calm     94% 0.00 in
05:49 50.7 °F 49.0 °F 29.87 in Calm     94% 0.00 in
05:54 50.7 °F 49.0 °F 29.87 in Calm     94% 0.00 in
05:59 50.9 °F 49.2 °F 29.87 in Calm     94% 0.00 in
06:04 51.1 °F 49.4 °F 29.87 in Calm     94% 0.00 in
06:09 51.2 °F 49.5 °F 29.87 in Calm     94% 0.00 in
06:14 51.3 °F 49.6 °F 29.87 in Calm     94% 0.00 in
06:19 51.4 °F 49.7 °F 29.87 in Calm     94% 0.00 in
06:24 51.6 °F 49.9 °F 29.87 in Calm     94% 0.00 in
06:29 51.9 °F 50.2 °F 29.87 in Calm     94% 0.00 in
06:34 52.1 °F 50.4 °F 29.87 in Calm     94% 0.00 in
06:39 52.2 °F 50.2 °F 29.87 in Calm     93% 0.00 in
06:44 52.4 °F 50.4 °F 29.87 in Calm     93% 0.00 in
06:49 52.7 °F 50.7 °F 29.87 in Calm     93% 0.00 in
06:54 53.0 °F 51.0 °F 29.86 in Calm   3.0 mph 93% 0.00 in
06:59 53.3 °F 51.3 °F 29.86 in East 1.0 mph 3.0 mph 93% 0.00 in
07:04 53.4 °F 51.1 °F 29.86 in ENE 1.0 mph 3.0 mph 92% 0.00 in
07:09 53.6 °F 51.3 °F 29.85 in ENE 1.0 mph 4.0 mph 92% 0.00 in
07:14 53.8 °F 51.5 °F 29.85 in ENE 1.0 mph 4.0 mph 92% 0.00 in
07:19 53.9 °F 51.6 °F 29.85 in ENE 2.0 mph 5.0 mph 92% 0.00 in
07:24 54.4 °F 51.8 °F 29.84 in NE 1.0 mph 4.0 mph 91% 0.00 in
07:29 54.7 °F 52.1 °F 29.84 in Calm   6.0 mph 91% 0.00 in
07:34 55.0 °F 52.1 °F 29.84 in ENE 2.0 mph 4.0 mph 90% 0.00 in
07:39 55.3 °F 52.4 °F 29.84 in East 2.0 mph 5.0 mph 90% 0.00 in
07:44 55.7 °F 52.5 °F 29.84 in ENE 3.0 mph 5.0 mph 89% 0.00 in
07:49 56.3 °F 52.8 °F 29.84 in ENE 2.0 mph 5.0 mph 88% 0.00 in
07:54 57.1 °F 53.0 °F 29.83 in NE 3.0 mph 6.0 mph 86% 0.00 in
07:59 57.6 °F 53.1 °F 29.83 in NE 3.0 mph 7.0 mph 85% 0.00 in
08:04 58.4 °F 53.6 °F 29.83 in East 5.0 mph 7.0 mph 84% 0.00 in
08:09 59.2 °F 54.0 °F 29.84 in NE 2.0 mph 5.0 mph 83% 0.00 in
08:19 60.3 °F 54.1 °F 29.84 in East 2.0 mph 5.0 mph 80% 0.00 in
08:24 61.0 °F 54.4 °F 29.83 in East 2.0 mph 6.0 mph 79% 0.00 in
08:29 61.4 °F 54.5 °F 29.83 in ENE 3.0 mph 6.0 mph 78% 0.00 in
08:34 61.7 °F 54.4 °F 29.83 in NE 4.0 mph 6.0 mph 77% 0.00 in
08:39 62.6 °F 55.6 °F 29.83 in NE 4.0 mph 6.0 mph 78% 0.00 in
08:44 62.8 °F 55.1 °F 29.83 in NE 4.0 mph 6.0 mph 76% 0.00 in
08:49 63.4 °F 55.7 °F 29.83 in NE 3.0 mph 6.0 mph 76% 0.00 in
08:54 63.8 °F 55.7 °F 29.83 in ENE 2.0 mph 7.0 mph 75% 0.00 in
08:59 64.2 °F 56.5 °F 29.83 in ENE 5.0 mph 7.0 mph 76% 0.00 in
09:04 65.5 °F 57.4 °F 29.83 in ENE 1.0 mph 5.0 mph 75% 0.00 in
09:09 65.7 °F 56.8 °F 29.83 in ENE 3.0 mph 5.0 mph 73% 0.00 in
09:14 66.3 °F 57.0 °F 29.83 in East 5.0 mph 7.0 mph 72% 0.00 in
09:19 66.6 °F 57.3 °F 29.83 in ENE 3.0 mph 7.0 mph 72% 0.00 in
09:24 66.8 °F 57.1 °F 29.83 in East 3.0 mph 7.0 mph 71% 0.00 in
09:29 67.6 °F 57.9 °F 29.82 in ESE 2.0 mph 6.0 mph 71% 0.00 in
09:34 67.2 °F 57.5 °F 29.82 in East 3.0 mph 7.0 mph 71% 0.00 in
09:39 67.6 °F 58.2 °F 29.82 in ENE 3.0 mph 7.0 mph 72% 0.00 in
09:44 67.4 °F 57.7 °F 29.82 in ENE 3.0 mph 8.0 mph 71% 0.00 in
09:49 67.5 °F 57.8 °F 29.82 in ESE 3.0 mph 8.0 mph 71% 0.00 in
09:54 68.2 °F 59.2 °F 29.82 in ENE 4.0 mph 4.0 mph 73% 0.00 in
09:59 68.3 °F 58.5 °F 29.81 in NE 5.0 mph 7.0 mph 71% 0.00 in
10:09 69.1 °F 60.1 °F 29.81 in Calm   7.0 mph 73% 0.00 in
10:14 69.5 °F 59.3 °F 29.81 in ESE 1.0 mph 7.0 mph 70% 0.00 in
10:19 68.6 °F 58.4 °F 29.80 in East 2.0 mph 7.0 mph 70% 0.00 in
10:24 68.4 °F 58.2 °F 29.80 in East 3.0 mph 7.0 mph 70% 0.00 in
10:29 69.3 °F 58.7 °F 29.80 in ESE 4.0 mph 7.0 mph 69% 0.00 in
10:34 69.4 °F 58.8 °F 29.80 in ENE 2.0 mph 5.0 mph 69% 0.00 in
10:39 70.2 °F 59.1 °F 29.80 in East 1.0 mph 7.0 mph 68% 0.00 in
10:44 70.9 °F 59.8 °F 29.80 in ENE 5.0 mph 7.0 mph 68% 0.00 in
10:49 70.7 °F 59.2 °F 29.81 in NE 1.0 mph 7.0 mph 67% 0.00 in
10:54 71.0 °F 59.9 °F 29.81 in ENE 2.0 mph 7.0 mph 68% 0.00 in
10:59 70.5 °F 59.4 °F 29.81 in ENE 2.0 mph 6.0 mph 68% 0.00 in
11:04 70.3 °F 60.1 °F 29.82 in SE 2.0 mph 3.0 mph 70% 0.00 in
11:09 70.2 °F 59.1 °F 29.81 in East 2.0 mph 6.0 mph 68% 0.00 in
11:14 70.7 °F 60.0 °F 29.81 in ENE 3.0 mph 6.0 mph 69% 0.00 in
11:19 70.6 °F 59.1 °F 29.82 in ENE 2.0 mph 6.0 mph 67% 0.00 in
11:24 71.3 °F 59.8 °F 29.82 in WSW 1.0 mph 2.0 mph 67% 0.00 in
11:29 71.3 °F 60.2 °F 29.81 in Calm   2.0 mph 68% 0.00 in
11:34 71.8 °F 59.8 °F 29.81 in NNW 2.0 mph 4.0 mph 66% 0.00 in
11:39 72.2 °F 60.6 °F 29.82 in West 2.0 mph 3.0 mph 67% 0.00 in
11:44 72.8 °F 59.9 °F 29.82 in WSW 1.0 mph 4.0 mph 64% 0.00 in
11:49 73.7 °F 59.4 °F 29.82 in WSW 2.0 mph 5.0 mph 61% 0.00 in
11:54 74.3 °F 60.0 °F 29.81 in SSW 2.0 mph 6.0 mph 61% 0.00 in
11:59 73.3 °F 59.0 °F 29.81 in SSW 3.0 mph 7.0 mph 61% 0.00 in
12:04 73.5 °F 61.0 °F 29.81 in SSW 3.0 mph 7.0 mph 65% 0.00 in
12:09 73.6 °F 60.7 °F 29.81 in West 2.0 mph 5.0 mph 64% 0.00 in
12:14 73.7 °F 59.4 °F 29.81 in WNW 2.0 mph 7.0 mph 61% 0.00 in
12:19 74.1 °F 61.1 °F 29.81 in North 1.0 mph 3.0 mph 64% 0.00 in
12:24 74.7 °F 60.8 °F 29.80 in Calm   4.0 mph 62% 0.00 in
12:34 74.0 °F 60.6 °F 29.80 in NE 3.0 mph 7.0 mph 63% 0.00 in
12:39 73.4 °F 60.5 °F 29.80 in North 1.0 mph 5.0 mph 64% 0.00 in
12:44 73.9 °F 60.1 °F 29.79 in NW 3.0 mph 4.0 mph 62% 0.00 in
12:49 75.2 °F 60.4 °F 29.79 in West 3.0 mph 5.0 mph 60% 0.00 in
12:54 75.5 °F 62.0 °F 29.79 in West 2.0 mph 5.0 mph 63% 0.00 in
12:59 74.8 °F 62.2 °F 29.79 in NNW 2.0 mph 4.0 mph 65% 0.00 in
13:04 75.5 °F 61.1 °F 29.79 in North 2.0 mph 4.0 mph 61% 0.00 in
13:09 75.4 °F 61.9 °F 29.79 in ENE 4.0 mph 4.0 mph 63% 0.00 in
13:14 75.5 °F 60.6 °F 29.79 in ENE 3.0 mph 5.0 mph 60% 0.00 in
13:19 76.6 °F 62.1 °F 29.78 in NE 2.0 mph 5.0 mph 61% 0.00 in
13:24 76.3 °F 60.9 °F 29.78 in NE 2.0 mph 5.0 mph 59% 0.00 in
13:29 76.7 °F 61.3 °F 29.78 in NNE 2.0 mph 4.0 mph 59% 0.00 in
13:34 76.5 °F 61.1 °F 29.78 in NE 3.0 mph 4.0 mph 59% 0.00 in
13:39 76.3 °F 59.9 °F 29.78 in NE 7.0 mph 8.0 mph 57% 0.00 in
13:44 75.4 °F 62.4 °F 29.77 in NE 3.0 mph 7.0 mph 64% 0.00 in
13:49 75.1 °F 60.3 °F 29.77 in NE 3.0 mph 7.0 mph 60% 0.00 in
13:54 74.8 °F 60.4 °F 29.77 in NNE 2.0 mph 7.0 mph 61% 0.00 in
13:59 75.1 °F 60.3 °F 29.77 in NE 5.0 mph 5.0 mph 60% 0.00 in
14:04 76.2 °F 60.8 °F 29.77 in NE 3.0 mph 8.0 mph 59% 0.00 in
14:09 76.3 °F 59.9 °F 29.76 in NNW 3.0 mph 4.0 mph 57% 0.00 in
14:14 77.1 °F 60.2 °F 29.76 in NE 2.0 mph 5.0 mph 56% 0.00 in
14:19 76.8 °F 60.9 °F 29.76 in ENE 2.0 mph 5.0 mph 58% 0.00 in
14:24 75.8 °F 59.5 °F 29.76 in East 2.0 mph 5.0 mph 57% 0.00 in
14:29 76.3 °F 61.9 °F 29.76 in ENE 2.0 mph 5.0 mph 61% 0.00 in
14:34 76.9 °F 60.5 °F 29.76 in East 2.0 mph 8.0 mph 57% 0.00 in
14:39 77.4 °F 61.5 °F 29.75 in East 2.0 mph 5.0 mph 58% 0.00 in
14:44 77.4 °F 61.5 °F 29.75 in NNE 4.0 mph 6.0 mph 58% 0.00 in
14:49 77.4 °F 60.0 °F 29.75 in NNE 3.0 mph 6.0 mph 55% 0.00 in
14:54 78.0 °F 61.5 °F 29.75 in NNE 3.0 mph 6.0 mph 57% 0.00 in
14:59 78.0 °F 63.0 °F 29.75 in NE 3.0 mph 6.0 mph 60% 0.00 in
15:04 78.3 °F 61.3 °F 29.75 in North 3.0 mph 6.0 mph 56% 0.00 in
15:09 77.8 °F 60.3 °F 29.74 in Calm   5.0 mph 55% 0.00 in
15:14 78.4 °F 60.9 °F 29.74 in NNE 2.0 mph 6.0 mph 55% 0.00 in
15:19 78.8 °F 63.3 °F 29.74 in NE 1.0 mph 4.0 mph 59% 0.00 in
15:24 79.0 °F 61.5 °F 29.74 in NE 2.0 mph 9.0 mph 55% 0.00 in
15:29 79.0 °F 63.0 °F 29.73 in ENE 3.0 mph 9.0 mph 58% 0.00 in
15:34 78.8 °F 61.3 °F 29.73 in ENE 3.0 mph 6.0 mph 55% 0.00 in
15:39 79.1 °F 61.0 °F 29.73 in ENE 3.0 mph 7.0 mph 54% 0.00 in
15:44 79.1 °F 60.5 °F 29.73 in ENE 1.0 mph 6.0 mph 53% 0.00 in
15:49 78.5 °F 62.0 °F 29.73 in ENE 1.0 mph 2.0 mph 57% 0.00 in
15:54 77.6 °F 60.2 °F 29.72 in ENE 3.0 mph 3.0 mph 55% 0.00 in
15:59 78.4 °F 62.4 °F 29.72 in ENE 3.0 mph 5.0 mph 58% 0.00 in
16:04 78.0 °F 61.5 °F 29.72 in NNW 5.0 mph 5.0 mph 57% 0.00 in
16:09 78.0 °F 61.5 °F 29.72 in SE 4.0 mph 8.0 mph 57% 0.00 in
16:14 79.2 °F 62.1 °F 29.72 in ESE 4.0 mph 5.0 mph 56% 0.00 in
16:19 79.8 °F 63.2 °F 29.72 in ESE 2.0 mph 5.0 mph 57% 0.00 in
16:24 79.9 °F 60.7 °F 29.71 in South 1.0 mph 5.0 mph 52% 0.00 in
16:29 79.4 °F 61.3 °F 29.71 in South 1.0 mph 5.0 mph 54% 0.00 in
16:34 79.6 °F 63.0 °F 29.71 in NE 2.0 mph 7.0 mph 57% 0.00 in
16:39 79.4 °F 62.3 °F 29.71 in NNE 3.0 mph 7.0 mph 56% 0.00 in
16:44 78.3 °F 62.3 °F 29.71 in NNE 2.0 mph 6.0 mph 58% 0.00 in
16:49 78.5 °F 61.5 °F 29.71 in NE 2.0 mph 9.0 mph 56% 0.00 in
16:54 78.4 °F 62.4 °F 29.71 in NE 3.0 mph 9.0 mph 58% 0.00 in
16:59 78.1 °F 62.1 °F 29.70 in NE 2.0 mph 5.0 mph 58% 0.00 in
17:04 77.7 °F 61.3 °F 29.70 in ENE 3.0 mph 8.0 mph 57% 0.00 in
17:09 77.7 °F 62.7 °F 29.70 in NE 2.0 mph 9.0 mph 60% 0.00 in
17:14 78.2 °F 63.2 °F 29.70 in NE 2.0 mph 8.0 mph 60% 0.00 in
17:19 77.6 °F 63.1 °F 29.70 in NE 3.0 mph 5.0 mph 61% 0.00 in
17:24 77.2 °F 62.2 °F 29.70 in NE 3.0 mph 10.0 mph 60% 0.00 in
17:29 77.1 °F 62.1 °F 29.70 in NE 4.0 mph 10.0 mph 60% 0.00 in
17:34 77.0 °F 62.5 °F 29.69 in NE 4.0 mph 10.0 mph 61% 0.00 in
17:39 76.9 °F 62.4 °F 29.70 in NE 4.0 mph 8.0 mph 61% 0.00 in
17:44 76.9 °F 62.4 °F 29.69 in ENE 7.0 mph 9.0 mph 61% 0.00 in
17:49 77.0 °F 62.0 °F 29.69 in NE 8.0 mph 9.0 mph 60% 0.00 in
17:54 77.1 °F 62.1 °F 29.69 in NE 5.0 mph 10.0 mph 60% 0.00 in
17:59 76.9 °F 62.9 °F 29.69 in NE 5.0 mph 10.0 mph 62% 0.00 in
18:04 76.7 °F 62.7 °F 29.69 in NE 4.0 mph 10.0 mph 62% 0.00 in
18:09 76.8 °F 62.3 °F 29.69 in NE 4.0 mph 8.0 mph 61% 0.00 in
18:14 76.7 °F 63.2 °F 29.70 in North 2.0 mph 9.0 mph 63% 0.00 in
18:19 76.1 °F 64.3 °F 29.69 in NE 2.0 mph 9.0 mph 67% 0.00 in
18:24 75.8 °F 63.6 °F 29.70 in NE 4.0 mph 11.0 mph 66% 0.00 in
18:29 75.7 °F 64.0 °F 29.70 in NE 5.0 mph 11.0 mph 67% 0.00 in
18:34 75.9 °F 64.2 °F 29.69 in NE 5.0 mph 12.0 mph 67% 0.00 in
18:39 75.7 °F 63.5 °F 29.70 in NE 6.0 mph 13.0 mph 66% 0.00 in
18:44 75.5 °F 63.8 °F 29.70 in NE 6.0 mph 13.0 mph 67% 0.00 in
18:49 75.4 °F 63.7 °F 29.69 in ENE 6.0 mph 10.0 mph 67% 0.00 in
18:54 75.4 °F 64.1 °F 29.69 in East 2.0 mph 8.0 mph 68% 0.00 in
18:59 75.3 °F 63.6 °F 29.69 in ENE 4.0 mph 10.0 mph 67% 0.00 in
19:04 75.1 °F 63.4 °F 29.69 in ENE 5.0 mph 10.0 mph 67% 0.00 in
19:09 75.1 °F 63.4 °F 29.69 in ENE 4.0 mph 8.0 mph 67% 0.00 in
19:14 75.0 °F 63.3 °F 29.69 in ENE 2.0 mph 7.0 mph 67% 0.00 in
19:19 75.0 °F 63.7 °F 29.70 in NE 3.0 mph 7.0 mph 68% 0.00 in
19:24 74.9 °F 63.6 °F 29.69 in ENE 1.0 mph 8.0 mph 68% 0.00 in
19:29 74.8 °F 63.5 °F 29.69 in ENE 4.0 mph 8.0 mph 68% 0.00 in
19:34 74.6 °F 63.3 °F 29.68 in NE 4.0 mph 8.0 mph 68% 0.00 in
19:39 74.3 °F 63.9 °F 29.69 in NE 4.0 mph 8.0 mph 70% 0.00 in
19:44 74.1 °F 63.7 °F 29.69 in ENE 4.0 mph 6.0 mph 70% 0.00 in
19:49 74.0 °F 63.6 °F 29.69 in ENE 3.0 mph 5.0 mph 70% 0.00 in
19:54 74.0 °F 63.6 °F 29.69 in East 5.0 mph 6.0 mph 70% 0.00 in
19:59 73.8 °F 63.4 °F 29.70 in East 3.0 mph 9.0 mph 70% 0.00 in
20:04 73.7 °F 63.7 °F 29.70 in ESE 3.0 mph 9.0 mph 71% 0.00 in
20:09 73.6 °F 63.2 °F 29.70 in South 3.0 mph 9.0 mph 70% 0.00 in
20:14 73.0 °F 62.2 °F 29.70 in SW 5.0 mph 10.0 mph 69% 0.00 in
20:19 72.4 °F 61.7 °F 29.70 in SW 5.0 mph 11.0 mph 69% 0.00 in
20:24 72.1 °F 61.4 °F 29.70 in SSW 5.0 mph 10.0 mph 69% 0.00 in
20:29 71.5 °F 61.6 °F 29.70 in SSW 5.0 mph 10.0 mph 71% 0.00 in
20:34 70.9 °F 61.4 °F 29.70 in SSW 4.0 mph 8.0 mph 72% 0.00 in
20:39 70.5 °F 61.4 °F 29.69 in SSW 3.0 mph 7.0 mph 73% 0.00 in
20:44 70.3 °F 61.2 °F 29.70 in South 4.0 mph 8.0 mph 73% 0.00 in
20:49 70.1 °F 61.4 °F 29.70 in South 2.0 mph 7.0 mph 74% 0.00 in
20:54 70.0 °F 61.7 °F 29.69 in South 3.0 mph 5.0 mph 75% 0.00 in
20:59 69.8 °F 61.5 °F 29.69 in South 2.0 mph 6.0 mph 75% 0.00 in
21:04 69.8 °F 61.5 °F 29.70 in SSE 2.0 mph 6.0 mph 75% 0.00 in
21:09 69.8 °F 61.9 °F 29.70 in SSE 2.0 mph 8.0 mph 76% 0.00 in
21:14 69.6 °F 61.3 °F 29.70 in SSW 3.0 mph 7.0 mph 75% 0.00 in
21:19 69.4 °F 61.5 °F 29.70 in South 2.0 mph 5.0 mph 76% 0.00 in
21:24 69.3 °F 61.8 °F 29.70 in South 1.0 mph 5.0 mph 77% 0.00 in
21:29 69.2 °F 61.7 °F 29.70 in South 2.0 mph 6.0 mph 77% 0.00 in
21:34 69.1 °F 61.6 °F 29.70 in South 2.0 mph 6.0 mph 77% 0.00 in
21:39 68.9 °F 61.4 °F 29.70 in SSE 1.0 mph 5.0 mph 77% 0.00 in
21:44 68.7 °F 61.2 °F 29.70 in SSE 1.0 mph 4.0 mph 77% 0.00 in
21:49 68.6 °F 61.5 °F 29.70 in SSE 3.0 mph 4.0 mph 78% 0.00 in
21:54 68.6 °F 61.5 °F 29.70 in SSE 2.0 mph 5.0 mph 78% 0.00 in
21:59 68.4 °F 61.3 °F 29.70 in South 2.0 mph 8.0 mph 78% 0.00 in
22:04 68.3 °F 60.8 °F 29.71 in South 3.0 mph 8.0 mph 77% 0.00 in
22:09 68.1 °F 60.6 °F 29.71 in South 3.0 mph 7.0 mph 77% 0.00 in
22:14 68.1 °F 60.2 °F 29.71 in South 4.0 mph 12.0 mph 76% 0.00 in
22:19 67.9 °F 60.1 °F 29.72 in South 3.0 mph 12.0 mph 76% 0.00 in
22:24 67.8 °F 60.3 °F 29.72 in South 3.0 mph 8.0 mph 77% 0.00 in
22:29 67.7 °F 60.2 °F 29.72 in South 3.0 mph 8.0 mph 77% 0.00 in
22:34 67.6 °F 60.1 °F 29.72 in SSW 4.0 mph 7.0 mph 77% 0.00 in
22:44 67.4 °F 60.3 °F 29.72 in SE 3.0 mph 7.0 mph 78% 0.00 in
22:49 67.4 °F 60.3 °F 29.72 in SSW 2.0 mph 8.0 mph 78% 0.00 in
22:54 67.3 °F 60.2 °F 29.72 in SSE 3.0 mph 6.0 mph 78% 0.00 in
22:59 67.4 °F 59.9 °F 29.72 in SSW 3.0 mph 6.0 mph 77% 0.00 in
23:04 67.6 °F 60.1 °F 29.71 in SSW 3.0 mph 6.0 mph 77% 0.00 in
23:09 67.5 °F 60.0 °F 29.71 in South 2.0 mph 6.0 mph 77% 0.00 in
23:14 67.4 °F 59.9 °F 29.71 in SSW 3.0 mph 8.0 mph 77% 0.00 in
23:19 67.4 °F 59.6 °F 29.71 in SSW 4.0 mph 8.0 mph 76% 0.00 in
23:24 67.3 °F 59.8 °F 29.70 in SSW 4.0 mph 9.0 mph 77% 0.00 in
23:29 67.2 °F 59.4 °F 29.70 in SSE 5.0 mph 8.0 mph 76% 0.00 in
23:34 67.1 °F 59.6 °F 29.70 in South 3.0 mph 8.0 mph 77% 0.00 in
23:39 66.8 °F 59.7 °F 29.69 in Calm   8.0 mph 78% 0.00 in
23:44 66.8 °F 59.7 °F 29.68 in SW 2.0 mph 6.0 mph 78% 0.00 in
23:49 66.7 °F 59.6 °F 29.69 in SSW 1.0 mph 7.0 mph 78% 0.00 in
23:54 66.6 °F 59.5 °F 29.69 in Calm   6.0 mph 78% 0.00 in
23:59 66.4 °F 59.3 °F 29.69 in SSW 1.0 mph 4.0 mph 78% 0.00 in
Buffalo, New York, USA
Compliments of Weather Underground - 2.5 mb